Better Place — ZGCL2 — position and weather

sailwx.info

Track history (hours):
 
Tides and Currents Weather Stations Pressure Air Temp Water Temp Dewpoint Dewpoint Depression Visibility Wind Speed Wind Dir Waves Ship Positions

Better Place

Last reported at 2018-Jul-19 09:22 UTC. Time now 2018-Jul-19 09:51 UTC.
Position N 38°52' E 001°19'.

Length 50 m; draft 5 m.

Type: Sailing vessel. MMSI: 319189000.

Date/timePositionNaut miles runAvg speedWind from/ knotsBaromVisibWave heightAir tempDewpointWater temp
2018-Jul-19 09:22N 38°52' E 001°19'0 0.0
2018-Jul-19 08:58N 38°52' E 001°19'0 0.0
2018-Jul-19 06:46N 38°52' E 001°19'0 0.0
2018-Jul-19 06:22N 38°52' E 001°19'0 0.0
2018-Jul-18 12:32N 38°52' E 001°19'2 8.0
2018-Jul-18 12:20N 38°50' E 001°19'410.8
2018-Jul-18 11:56N 38°46' E 001°21'4 7.8
2018-Jul-18 11:29N 38°45' E 001°25'0 0.1
2018-Jul-18 10:17N 38°45' E 001°26'0 0.1
2018-Jul-18 07:15N 38°45' E 001°26'0 0.9
2018-Jul-18 06:59N 38°45' E 001°25'0 0.0
2018-Jul-18 06:11N 38°45' E 001°25'0 0.1
2018-Jul-18 05:59N 38°45' E 001°25'0 0.0
2018-Jul-18 05:26N 38°45' E 001°25'0 0.0
2018-Jul-18 04:41N 38°45' E 001°25'0 0.0
2018-Jul-18 04:17N 38°45' E 001°25'0 0.0
2018-Jul-18 03:59N 38°45' E 001°25'0 0.0
2018-Jul-18 03:29N 38°45' E 001°25'0 0.0
2018-Jul-18 02:59N 38°45' E 001°25'0 0.0
2018-Jul-18 02:17N 38°45' E 001°25'0 0.0
2018-Jul-18 01:54N 38°45' E 001°25'0 0.0
2018-Jul-18 01:29N 38°45' E 001°25'0 0.0
2018-Jul-18 00:59N 38°45' E 001°25'0 0.0
2018-Jul-18 00:23N 38°45' E 001°25'0 0.0
2018-Jul-17 23:59N 38°45' E 001°25'0 0.0
2018-Jul-17 23:29N 38°45' E 001°25'0 0.0
2018-Jul-17 22:59N 38°45' E 001°25'0 0.0
2018-Jul-17 21:17N 38°45' E 001°25'0 0.0
2018-Jul-17 20:59N 38°45' E 001°25'0 0.0
2018-Jul-17 20:08N 38°45' E 001°25'0 0.1
2018-Jul-17 19:57N 38°45' E 001°25'2 3.7
2018-Jul-17 19:27N 38°44' E 001°23'5 9.8
2018-Jul-17 18:57N 38°39' E 001°22'4 8.2
2018-Jul-17 18:30N 38°39' E 001°27'3 5.6
2018-Jul-17 17:59N 38°40' E 001°30'0 0.0
2018-Jul-17 17:29N 38°40' E 001°30'0 0.0
2018-Jul-17 16:59N 38°40' E 001°30'0 0.0
2018-Jul-17 16:23N 38°40' E 001°30'0 0.0
2018-Jul-17 15:59N 38°40' E 001°30'0 0.0
2018-Jul-17 15:29N 38°40' E 001°30'0 0.0
2018-Jul-17 14:59N 38°40' E 001°30'0 0.0
2018-Jul-17 13:08N 38°40' E 001°30'0 1.2
2018-Jul-17 12:57N 38°40' E 001°30'3 7.6
2018-Jul-17 12:30N 38°39' E 001°34'5 9.8
2018-Jul-17 11:57N 38°44' E 001°36'510.2
2018-Jul-17 11:30N 38°49' E 001°36'510.4
2018-Jul-17 11:00N 38°54' E 001°37'510.3
2018-Jul-17 10:30N 38°59' E 001°37'5 0.1
2018-Jul-15 17:45N 39°04' E 001°36'0 0.0
2018-Jul-15 17:24N 39°04' E 001°36'0 0.0
2018-Jul-15 16:57N 39°04' E 001°36'0 0.1
2018-Jul-15 16:09N 39°04' E 001°36'0 1.9
2018-Jul-15 16:00N 39°04' E 001°36'4 8.4
2018-Jul-15 15:30N 38°60' E 001°36'510.6
2018-Jul-15 15:00N 38°56' E 001°32'4 5.9
2018-Jul-15 14:24N 38°55' E 001°28'0 0.0
2018-Jul-15 12:48N 38°55' E 001°28'0 0.0
2018-Jul-15 11:39N 38°55' E 001°28'0 0.0
2018-Jul-15 11:22N 38°55' E 001°28'0 0.0
2018-Jul-15 09:00N 38°55' E 001°28'0 0.0
2018-Jul-15 06:54N 38°55' E 001°28'0 0.0
2018-Jul-15 06:16N 38°55' E 001°28'0 0.0
2018-Jul-15 05:57N 38°55' E 001°28'0 0.0
2018-Jul-15 05:27N 38°55' E 001°28'0 0.1
2018-Jul-15 05:00N 38°55' E 001°28'0 0.0
2018-Jul-15 04:27N 38°55' E 001°28'0 0.0
2018-Jul-15 04:01N 38°55' E 001°28'0 0.0
2018-Jul-15 03:30N 38°55' E 001°28'0 0.0
2018-Jul-15 03:00N 38°55' E 001°28'0 0.0
2018-Jul-15 02:31N 38°55' E 001°28'0 0.0
2018-Jul-15 02:00N 38°55' E 001°28'0 0.0
2018-Jul-15 01:30N 38°55' E 001°28'0 0.0
2018-Jul-15 01:00N 38°55' E 001°28'0 0.0
2018-Jul-15 00:27N 38°55' E 001°28'0 0.0
2018-Jul-14 23:57N 38°55' E 001°28'0 0.0
2018-Jul-14 23:21N 38°55' E 001°28'0 0.0
2018-Jul-14 23:00N 38°55' E 001°28'0 0.0
2018-Jul-14 22:30N 38°55' E 001°28'0 0.0
2018-Jul-14 21:48N 38°55' E 001°28'0 0.0
2018-Jul-14 21:27N 38°55' E 001°28'0 0.0
2018-Jul-14 21:00N 38°54' E 001°28'1 1.2
2018-Jul-14 19:56N 38°53' E 001°28'510.7
2018-Jul-14 19:30N 38°49' E 001°25'11 8.2
2018-Jul-14 18:09N 38°54' E 001°13'1 9.9
2018-Jul-14 18:01N 38°55' E 001°13'1 0.4
2018-Jul-14 15:09N 38°56' E 001°14'7 3.9
2018-Jul-14 13:28N 38°50' E 001°16'2 3.3
2018-Jul-14 13:00N 38°50' E 001°18'2 0.1
2018-Jul-13 16:34N 38°51' E 001°19'1 9.1
2018-Jul-13 16:29N 38°51' E 001°19'611.3
2018-Jul-13 16:00N 38°47' E 001°24'2 3.8
2018-Jul-13 15:30N 38°45' E 001°26'0 0.0
2018-Jul-13 14:57N 38°45' E 001°26'0 0.0
2018-Jul-13 14:30N 38°45' E 001°26'0 0.0
2018-Jul-13 13:27N 38°45' E 001°26'0 0.0
2018-Jul-13 12:45N 38°45' E 001°26'0 0.0
2018-Jul-13 12:27N 38°45' E 001°26'0 0.0
2018-Jul-13 11:54N 38°45' E 001°26'0 0.0
2018-Jul-13 11:30N 38°45' E 001°26'0 0.0
2018-Jul-13 10:54N 38°45' E 001°26'0 0.6
2018-Jul-13 10:30N 38°45' E 001°25'4 7.2
2018-Jul-13 10:00N 38°49' E 001°26'510.1
2018-Jul-13 09:30N 38°54' E 001°28'1 2.2
2018-Jul-13 08:58N 38°55' E 001°28'0 0.0
2018-Jul-13 08:28N 38°55' E 001°28'0 0.0
2018-Jul-13 07:58N 38°55' E 001°28'0 0.0
2018-Jul-13 07:22N 38°55' E 001°28'0 0.0
2018-Jul-13 06:55N 38°55' E 001°28'0 0.0
2018-Jul-13 06:28N 38°55' E 001°28'0 0.0
2018-Jul-13 05:31N 38°55' E 001°28'0 0.0
2018-Jul-13 05:19N 38°55' E 001°28'0 0.0
2018-Jul-13 04:55N 38°55' E 001°28'0 0.0
2018-Jul-13 04:25N 38°55' E 001°28'0 0.0
2018-Jul-13 03:58N 38°55' E 001°28'0 0.0
2018-Jul-13 03:10N 38°55' E 001°28'0 0.1
2018-Jul-13 02:56N 38°55' E 001°28'0 0.0
2018-Jul-13 02:28N 38°55' E 001°28'0 0.1
2018-Jul-13 01:58N 38°55' E 001°28'0 0.0
2018-Jul-13 01:04N 38°55' E 001°28'0 0.0
2018-Jul-13 00:07N 38°55' E 001°28'0 0.1
2018-Jul-12 23:58N 38°55' E 001°28'0 0.0
2018-Jul-12 23:22N 38°55' E 001°28'0 0.0
2018-Jul-12 21:28N 38°55' E 001°28'0 0.0
2018-Jul-12 20:37N 38°55' E 001°28'0 0.0
2018-Jul-12 20:28N 38°55' E 001°28'0 0.0
2018-Jul-12 19:55N 38°55' E 001°28'0 0.0
2018-Jul-12 18:25N 38°55' E 001°28'0 0.2
2018-Jul-12 17:55N 38°55' E 001°28'0 0.0
2018-Jul-12 17:28N 38°55' E 001°28'0 0.0
2018-Jul-12 16:46N 38°55' E 001°28'0 0.0
2018-Jul-12 16:28N 38°55' E 001°28'0 0.0
2018-Jul-12 15:22N 38°55' E 001°28'0 0.0
2018-Jul-12 15:00N 38°55' E 001°28'2 3.0
2018-Jul-12 14:26N 38°54' E 001°26'0 0.0
2018-Jul-12 13:50N 38°54' E 001°26'0 0.0
2018-Jul-12 13:29N 38°54' E 001°26'0 0.0
2018-Jul-12 11:20N 38°54' E 001°26'0 0.0
2018-Jul-12 10:57N 38°54' E 001°26'0 0.0
2018-Jul-12 10:26N 38°54' E 001°26'0 0.0
2018-Jul-12 09:59N 38°54' E 001°26'0 0.0
2018-Jul-12 09:23N 38°54' E 001°26'0 0.0
2018-Jul-12 08:53N 38°54' E 001°26'0 0.0
2018-Jul-12 08:26N 38°54' E 001°26'0 0.0
2018-Jul-12 07:57N 38°54' E 001°26'0 0.0
2018-Jul-12 07:20N 38°54' E 001°26'0 0.0
2018-Jul-12 06:50N 38°54' E 001°26'0 0.0
2018-Jul-12 06:30N 38°54' E 001°26'0 0.0
2018-Jul-12 05:59N 38°54' E 001°26'0 0.0
2018-Jul-12 05:29N 38°54' E 001°26'0 0.0
2018-Jul-12 04:59N 38°54' E 001°26'0 0.0
2018-Jul-12 04:23N 38°54' E 001°26'0 0.0
2018-Jul-12 03:59N 38°54' E 001°26'0 0.1
2018-Jul-12 03:29N 38°54' E 001°26'0 0.0
2018-Jul-12 02:59N 38°54' E 001°26'0 0.0
2018-Jul-12 02:29N 38°54' E 001°26'0 0.0
2018-Jul-12 01:59N 38°54' E 001°26'0 0.0
2018-Jul-12 01:29N 38°54' E 001°26'0 0.0
2018-Jul-12 00:53N 38°54' E 001°26'0 0.0
2018-Jul-12 00:29N 38°54' E 001°26'0 0.0
2018-Jul-11 23:59N 38°54' E 001°26'0 0.0
2018-Jul-11 23:29N 38°54' E 001°26'0 0.0
2018-Jul-11 22:59N 38°54' E 001°26'0 0.0
2018-Jul-11 22:29N 38°54' E 001°26'0 0.0
2018-Jul-11 21:59N 38°54' E 001°26'0 0.0
2018-Jul-11 21:29N 38°54' E 001°26'0 0.0
2018-Jul-11 20:56N 38°54' E 001°26'0 0.0
2018-Jul-11 20:26N 38°54' E 001°26'0 0.0
2018-Jul-11 19:59N 38°54' E 001°26'0 0.0
2018-Jul-11 19:26N 38°54' E 001°26'0 0.0
2018-Jul-11 18:59N 38°54' E 001°26'0 0.0
2018-Jul-11 18:29N 38°54' E 001°26'0 0.0
2018-Jul-11 17:56N 38°54' E 001°26'0 0.0
2018-Jul-11 17:16N 38°54' E 001°26'0 0.0
2018-Jul-11 16:41N 38°54' E 001°26'0 0.0
2018-Jul-11 16:30N 38°54' E 001°26'0 0.0
2018-Jul-11 15:50N 38°54' E 001°26'0 0.0
2018-Jul-11 15:30N 38°54' E 001°26'0 0.0
2018-Jul-11 14:59N 38°54' E 001°26'1 0.7
2018-Jul-11 13:38N 38°55' E 001°26'0 0.0
2018-Jul-11 13:14N 38°55' E 001°26'0 0.0
2018-Jul-11 12:59N 38°55' E 001°26'2 4.4
2018-Jul-11 12:29N 38°53' E 001°26'4 7.0
2018-Jul-11 11:53N 38°48' E 001°25'410.3
2018-Jul-11 11:30N 38°50' E 001°21'2 0.4
2018-Jul-11 06:48N 38°52' E 001°19'0 0.0
2018-Jul-10 16:36N 38°52' E 001°19'0 0.0
2018-Jul-10 16:06N 38°52' E 001°19'0 0.0
2018-Jul-10 16:00N 38°52' E 001°19'0 0.0
2018-Jul-10 14:48N 38°52' E 001°19'0 0.0
2018-Jul-10 14:30N 38°52' E 001°19'0 0.0
2018-Jul-10 14:00N 38°52' E 001°19'0 0.0
2018-Jul-10 13:00N 38°52' E 001°19'0 0.0
2018-Jul-10 11:36N 38°52' E 001°19'0 0.1
2018-Jul-10 11:30N 38°52' E 001°19'0 0.0
2018-Jul-10 11:00N 38°52' E 001°19'0 0.0
2018-Jul-10 10:30N 38°52' E 001°19'0 0.0
2018-Jul-10 08:36N 38°52' E 001°19'0 0.0
2018-Jul-10 07:06N 38°52' E 001°19'0 0.0
2018-Jul-10 06:48N 38°52' E 001°19'0 0.0
2018-Jul-10 06:18N 38°52' E 001°19'0 0.0
2018-Jul-10 06:00N 38°52' E 001°19'0 0.0
2018-Jul-10 05:30N 38°52' E 001°19'0 0.0
2018-Jul-10 05:00N 38°52' E 001°19'0 0.0
2018-Jul-10 04:24N 38°52' E 001°19'0 0.0
2018-Jul-10 04:00N 38°52' E 001°19'0 0.0
2018-Jul-10 03:30N 38°52' E 001°19'0 0.0
2018-Jul-10 02:48N 38°52' E 001°19'0 0.0
2018-Jul-10 02:30N 38°52' E 001°19'0 0.0
2018-Jul-10 02:00N 38°52' E 001°19'0 0.0
2018-Jul-10 00:36N 38°52' E 001°19'0 0.1
2018-Jul-10 00:30N 38°52' E 001°19'0 0.0
2018-Jul-10 00:00N 38°52' E 001°19'0 0.0
2018-Jul-09 23:30N 38°52' E 001°19'0 0.0
2018-Jul-09 21:30N 38°52' E 001°19'0 0.0
2018-Jul-09 21:00N 38°52' E 001°19'0 0.1
2018-Jul-09 20:30N 38°52' E 001°19'0 0.0
2018-Jul-09 20:00N 38°52' E 001°19'0 0.0
2018-Jul-09 19:30N 38°52' E 001°19'0 0.0
2018-Jul-09 19:00N 38°52' E 001°19'0 0.0
2018-Jul-09 18:30N 38°52' E 001°19'0 0.0
2018-Jul-09 17:48N 38°52' E 001°19'0 0.0
2018-Jul-09 17:30N 38°52' E 001°19'0 0.0
2018-Jul-09 16:54N 38°52' E 001°19'0 0.0
2018-Jul-09 16:12N 38°52' E 001°19'0 0.0
2018-Jul-09 15:54N 38°52' E 001°19'0 0.0
2018-Jul-09 15:12N 38°52' E 001°19'0 0.0
2018-Jul-09 14:12N 38°52' E 001°19'0 0.0
2018-Jul-09 13:42N 38°52' E 001°19'0 0.0
2018-Jul-09 13:30N 38°52' E 001°19'0 0.0
2018-Jul-09 13:00N 38°52' E 001°19'0 0.0
2018-Jul-09 12:12N 38°52' E 001°19'0 0.0
2018-Jul-09 12:00N 38°52' E 001°19'0 0.0
2018-Jul-09 11:24N 38°52' E 001°19'0 0.0
2018-Jul-09 11:00N 38°52' E 001°19'0 0.0
2018-Jul-09 10:24N 38°52' E 001°19'0 0.0
2018-Jul-09 10:00N 38°52' E 001°19'  
Track history (hours):
 
Tides and Currents Weather Stations Pressure Air Temp Water Temp Dewpoint Dewpoint Depression Visibility Wind Speed Wind Dir Waves Ship Positions

Better Place

Last reported at 2018-Jul-19 09:22 UTC. Time now 2018-Jul-19 09:51 UTC.
Position N 38°52' E 001°19'.

Length 50 m; draft 5 m.

Type: Sailing vessel. MMSI: 319189000.

Date/timePositionNaut miles runAvg speedWind from/ knotsBaromVisibWave heightAir tempDewpointWater temp
2018-Jul-19 09:22N 38°52' E 001°19'0 0.0
2018-Jul-19 08:58N 38°52' E 001°19'0 0.0
2018-Jul-19 06:46N 38°52' E 001°19'0 0.0
2018-Jul-19 06:22N 38°52' E 001°19'0 0.0
2018-Jul-18 12:32N 38°52' E 001°19'2 8.0
2018-Jul-18 12:20N 38°50' E 001°19'410.8
2018-Jul-18 11:56N 38°46' E 001°21'4 7.8
2018-Jul-18 11:29N 38°45' E 001°25'0 0.1
2018-Jul-18 10:17N 38°45' E 001°26'0 0.1
2018-Jul-18 07:15N 38°45' E 001°26'0 0.9
2018-Jul-18 06:59N 38°45' E 001°25'0 0.0
2018-Jul-18 06:11N 38°45' E 001°25'0 0.1
2018-Jul-18 05:59N 38°45' E 001°25'0 0.0
2018-Jul-18 05:26N 38°45' E 001°25'0 0.0
2018-Jul-18 04:41N 38°45' E 001°25'0 0.0
2018-Jul-18 04:17N 38°45' E 001°25'0 0.0
2018-Jul-18 03:59N 38°45' E 001°25'0 0.0
2018-Jul-18 03:29N 38°45' E 001°25'0 0.0
2018-Jul-18 02:59N 38°45' E 001°25'0 0.0
2018-Jul-18 02:17N 38°45' E 001°25'0 0.0
2018-Jul-18 01:54N 38°45' E 001°25'0 0.0
2018-Jul-18 01:29N 38°45' E 001°25'0 0.0
2018-Jul-18 00:59N 38°45' E 001°25'0 0.0
2018-Jul-18 00:23N 38°45' E 001°25'0 0.0
2018-Jul-17 23:59N 38°45' E 001°25'0 0.0
2018-Jul-17 23:29N 38°45' E 001°25'0 0.0
2018-Jul-17 22:59N 38°45' E 001°25'0 0.0
2018-Jul-17 21:17N 38°45' E 001°25'0 0.0
2018-Jul-17 20:59N 38°45' E 001°25'0 0.0
2018-Jul-17 20:08N 38°45' E 001°25'0 0.1
2018-Jul-17 19:57N 38°45' E 001°25'2 3.7
2018-Jul-17 19:27N 38°44' E 001°23'5 9.8
2018-Jul-17 18:57N 38°39' E 001°22'4 8.2
2018-Jul-17 18:30N 38°39' E 001°27'3 5.6
2018-Jul-17 17:59N 38°40' E 001°30'0 0.0
2018-Jul-17 17:29N 38°40' E 001°30'0 0.0
2018-Jul-17 16:59N 38°40' E 001°30'0 0.0
2018-Jul-17 16:23N 38°40' E 001°30'0 0.0
2018-Jul-17 15:59N 38°40' E 001°30'0 0.0
2018-Jul-17 15:29N 38°40' E 001°30'0 0.0
2018-Jul-17 14:59N 38°40' E 001°30'0 0.0
2018-Jul-17 13:08N 38°40' E 001°30'0 1.2
2018-Jul-17 12:57N 38°40' E 001°30'3 7.6
2018-Jul-17 12:30N 38°39' E 001°34'5 9.8
2018-Jul-17 11:57N 38°44' E 001°36'510.2
2018-Jul-17 11:30N 38°49' E 001°36'510.4
2018-Jul-17 11:00N 38°54' E 001°37'510.3
2018-Jul-17 10:30N 38°59' E 001°37'5 0.1
2018-Jul-15 17:45N 39°04' E 001°36'0 0.0
2018-Jul-15 17:24N 39°04' E 001°36'0 0.0
2018-Jul-15 16:57N 39°04' E 001°36'0 0.1
2018-Jul-15 16:09N 39°04' E 001°36'0 1.9
2018-Jul-15 16:00N 39°04' E 001°36'4 8.4
2018-Jul-15 15:30N 38°60' E 001°36'510.6
2018-Jul-15 15:00N 38°56' E 001°32'4 5.9
2018-Jul-15 14:24N 38°55' E 001°28'0 0.0
2018-Jul-15 12:48N 38°55' E 001°28'0 0.0
2018-Jul-15 11:39N 38°55' E 001°28'0 0.0
2018-Jul-15 11:22N 38°55' E 001°28'0 0.0
2018-Jul-15 09:00N 38°55' E 001°28'0 0.0
2018-Jul-15 06:54N 38°55' E 001°28'0 0.0
2018-Jul-15 06:16N 38°55' E 001°28'0 0.0
2018-Jul-15 05:57N 38°55' E 001°28'0 0.0
2018-Jul-15 05:27N 38°55' E 001°28'0 0.1
2018-Jul-15 05:00N 38°55' E 001°28'0 0.0
2018-Jul-15 04:27N 38°55' E 001°28'0 0.0
2018-Jul-15 04:01N 38°55' E 001°28'0 0.0
2018-Jul-15 03:30N 38°55' E 001°28'0 0.0
2018-Jul-15 03:00N 38°55' E 001°28'0 0.0
2018-Jul-15 02:31N 38°55' E 001°28'0 0.0
2018-Jul-15 02:00N 38°55' E 001°28'0 0.0
2018-Jul-15 01:30N 38°55' E 001°28'0 0.0
2018-Jul-15 01:00N 38°55' E 001°28'0 0.0
2018-Jul-15 00:27N 38°55' E 001°28'0 0.0
2018-Jul-14 23:57N 38°55' E 001°28'0 0.0
2018-Jul-14 23:21N 38°55' E 001°28'0 0.0
2018-Jul-14 23:00N 38°55' E 001°28'0 0.0
2018-Jul-14 22:30N 38°55' E 001°28'0 0.0
2018-Jul-14 21:48N 38°55' E 001°28'0 0.0
2018-Jul-14 21:27N 38°55' E 001°28'0 0.0
2018-Jul-14 21:00N 38°54' E 001°28'1 1.2
2018-Jul-14 19:56N 38°53' E 001°28'510.7
2018-Jul-14 19:30N 38°49' E 001°25'11 8.2
2018-Jul-14 18:09N 38°54' E 001°13'1 9.9
2018-Jul-14 18:01N 38°55' E 001°13'1 0.4
2018-Jul-14 15:09N 38°56' E 001°14'7 3.9
2018-Jul-14 13:28N 38°50' E 001°16'2 3.3
2018-Jul-14 13:00N 38°50' E 001°18'2 0.1
2018-Jul-13 16:34N 38°51' E 001°19'1 9.1
2018-Jul-13 16:29N 38°51' E 001°19'611.3
2018-Jul-13 16:00N 38°47' E 001°24'2 3.8
2018-Jul-13 15:30N 38°45' E 001°26'0 0.0
2018-Jul-13 14:57N 38°45' E 001°26'0 0.0
2018-Jul-13 14:30N 38°45' E 001°26'0 0.0
2018-Jul-13 13:27N 38°45' E 001°26'0 0.0
2018-Jul-13 12:45N 38°45' E 001°26'0 0.0
2018-Jul-13 12:27N 38°45' E 001°26'0 0.0
2018-Jul-13 11:54N 38°45' E 001°26'0 0.0
2018-Jul-13 11:30N 38°45' E 001°26'0 0.0
2018-Jul-13 10:54N 38°45' E 001°26'0 0.6
2018-Jul-13 10:30N 38°45' E 001°25'4 7.2
2018-Jul-13 10:00N 38°49' E 001°26'510.1
2018-Jul-13 09:30N 38°54' E 001°28'1 2.2
2018-Jul-13 08:58N 38°55' E 001°28'0 0.0
2018-Jul-13 08:28N 38°55' E 001°28'0 0.0
2018-Jul-13 07:58N 38°55' E 001°28'0 0.0
2018-Jul-13 07:22N 38°55' E 001°28'0 0.0
2018-Jul-13 06:55N 38°55' E 001°28'0 0.0
2018-Jul-13 06:28N 38°55' E 001°28'0 0.0
2018-Jul-13 05:31N 38°55' E 001°28'0 0.0
2018-Jul-13 05:19N 38°55' E 001°28'0 0.0
2018-Jul-13 04:55N 38°55' E 001°28'0 0.0
2018-Jul-13 04:25N 38°55' E 001°28'0 0.0
2018-Jul-13 03:58N 38°55' E 001°28'0 0.0
2018-Jul-13 03:10N 38°55' E 001°28'0 0.1
2018-Jul-13 02:56N 38°55' E 001°28'0 0.0
2018-Jul-13 02:28N 38°55' E 001°28'0 0.1
2018-Jul-13 01:58N 38°55' E 001°28'0 0.0
2018-Jul-13 01:04N 38°55' E 001°28'0 0.0
2018-Jul-13 00:07N 38°55' E 001°28'0 0.1
2018-Jul-12 23:58N 38°55' E 001°28'0 0.0
2018-Jul-12 23:22N 38°55' E 001°28'0 0.0
2018-Jul-12 21:28N 38°55' E 001°28'0 0.0
2018-Jul-12 20:37N 38°55' E 001°28'0 0.0
2018-Jul-12 20:28N 38°55' E 001°28'0 0.0
2018-Jul-12 19:55N 38°55' E 001°28'0 0.0
2018-Jul-12 18:25N 38°55' E 001°28'0 0.2
2018-Jul-12 17:55N 38°55' E 001°28'0 0.0
2018-Jul-12 17:28N 38°55' E 001°28'0 0.0
2018-Jul-12 16:46N 38°55' E 001°28'0 0.0
2018-Jul-12 16:28N 38°55' E 001°28'0 0.0
2018-Jul-12 15:22N 38°55' E 001°28'0 0.0
2018-Jul-12 15:00N 38°55' E 001°28'2 3.0
2018-Jul-12 14:26N 38°54' E 001°26'0 0.0
2018-Jul-12 13:50N 38°54' E 001°26'0 0.0
2018-Jul-12 13:29N 38°54' E 001°26'0 0.0
2018-Jul-12 11:20N 38°54' E 001°26'0 0.0
2018-Jul-12 10:57N 38°54' E 001°26'0 0.0
2018-Jul-12 10:26N 38°54' E 001°26'0 0.0
2018-Jul-12 09:59N 38°54' E 001°26'0 0.0
2018-Jul-12 09:23N 38°54' E 001°26'0 0.0
2018-Jul-12 08:53N 38°54' E 001°26'0 0.0
2018-Jul-12 08:26N 38°54' E 001°26'0 0.0
2018-Jul-12 07:57N 38°54' E 001°26'0 0.0
2018-Jul-12 07:20N 38°54' E 001°26'0 0.0
2018-Jul-12 06:50N 38°54' E 001°26'0 0.0
2018-Jul-12 06:30N 38°54' E 001°26'0 0.0
2018-Jul-12 05:59N 38°54' E 001°26'0 0.0
2018-Jul-12 05:29N 38°54' E 001°26'0 0.0
2018-Jul-12 04:59N 38°54' E 001°26'0 0.0
2018-Jul-12 04:23N 38°54' E 001°26'0 0.0
2018-Jul-12 03:59N 38°54' E 001°26'0 0.1
2018-Jul-12 03:29N 38°54' E 001°26'0 0.0
2018-Jul-12 02:59N 38°54' E 001°26'0 0.0
2018-Jul-12 02:29N 38°54' E 001°26'0 0.0
2018-Jul-12 01:59N 38°54' E 001°26'0 0.0
2018-Jul-12 01:29N 38°54' E 001°26'0 0.0
2018-Jul-12 00:53N 38°54' E 001°26'0 0.0
2018-Jul-12 00:29N 38°54' E 001°26'0 0.0
2018-Jul-11 23:59N 38°54' E 001°26'0 0.0
2018-Jul-11 23:29N 38°54' E 001°26'0 0.0
2018-Jul-11 22:59N 38°54' E 001°26'0 0.0
2018-Jul-11 22:29N 38°54' E 001°26'0 0.0
2018-Jul-11 21:59N 38°54' E 001°26'0 0.0
2018-Jul-11 21:29N 38°54' E 001°26'0 0.0
2018-Jul-11 20:56N 38°54' E 001°26'0 0.0
2018-Jul-11 20:26N 38°54' E 001°26'0 0.0
2018-Jul-11 19:59N 38°54' E 001°26'0 0.0
2018-Jul-11 19:26N 38°54' E 001°26'0 0.0
2018-Jul-11 18:59N 38°54' E 001°26'0 0.0
2018-Jul-11 18:29N 38°54' E 001°26'0 0.0
2018-Jul-11 17:56N 38°54' E 001°26'0 0.0
2018-Jul-11 17:16N 38°54' E 001°26'0 0.0
2018-Jul-11 16:41N 38°54' E 001°26'0 0.0
2018-Jul-11 16:30N 38°54' E 001°26'0 0.0
2018-Jul-11 15:50N 38°54' E 001°26'0 0.0
2018-Jul-11 15:30N 38°54' E 001°26'0 0.0
2018-Jul-11 14:59N 38°54' E 001°26'1 0.7
2018-Jul-11 13:38N 38°55' E 001°26'0 0.0
2018-Jul-11 13:14N 38°55' E 001°26'0 0.0
2018-Jul-11 12:59N 38°55' E 001°26'2 4.4
2018-Jul-11 12:29N 38°53' E 001°26'4 7.0
2018-Jul-11 11:53N 38°48' E 001°25'410.3
2018-Jul-11 11:30N 38°50' E 001°21'2 0.4
2018-Jul-11 06:48N 38°52' E 001°19'0 0.0
2018-Jul-10 16:36N 38°52' E 001°19'0 0.0
2018-Jul-10 16:06N 38°52' E 001°19'0 0.0
2018-Jul-10 16:00N 38°52' E 001°19'0 0.0
2018-Jul-10 14:48N 38°52' E 001°19'0 0.0
2018-Jul-10 14:30N 38°52' E 001°19'0 0.0
2018-Jul-10 14:00N 38°52' E 001°19'0 0.0
2018-Jul-10 13:00N 38°52' E 001°19'0 0.0
2018-Jul-10 11:36N 38°52' E 001°19'0 0.1
2018-Jul-10 11:30N 38°52' E 001°19'0 0.0
2018-Jul-10 11:00N 38°52' E 001°19'0 0.0
2018-Jul-10 10:30N 38°52' E 001°19'0 0.0
2018-Jul-10 08:36N 38°52' E 001°19'0 0.0
2018-Jul-10 07:06N 38°52' E 001°19'0 0.0
2018-Jul-10 06:48N 38°52' E 001°19'0 0.0
2018-Jul-10 06:18N 38°52' E 001°19'0 0.0
2018-Jul-10 06:00N 38°52' E 001°19'0 0.0
2018-Jul-10 05:30N 38°52' E 001°19'0 0.0
2018-Jul-10 05:00N 38°52' E 001°19'0 0.0
2018-Jul-10 04:24N 38°52' E 001°19'0 0.0
2018-Jul-10 04:00N 38°52' E 001°19'0 0.0
2018-Jul-10 03:30N 38°52' E 001°19'0 0.0
2018-Jul-10 02:48N 38°52' E 001°19'0 0.0
2018-Jul-10 02:30N 38°52' E 001°19'0 0.0
2018-Jul-10 02:00N 38°52' E 001°19'0 0.0
2018-Jul-10 00:36N 38°52' E 001°19'0 0.1
2018-Jul-10 00:30N 38°52' E 001°19'0 0.0
2018-Jul-10 00:00N 38°52' E 001°19'0 0.0
2018-Jul-09 23:30N 38°52' E 001°19'0 0.0
2018-Jul-09 21:30N 38°52' E 001°19'0 0.0
2018-Jul-09 21:00N 38°52' E 001°19'0 0.1
2018-Jul-09 20:30N 38°52' E 001°19'0 0.0
2018-Jul-09 20:00N 38°52' E 001°19'0 0.0
2018-Jul-09 19:30N 38°52' E 001°19'0 0.0
2018-Jul-09 19:00N 38°52' E 001°19'0 0.0
2018-Jul-09 18:30N 38°52' E 001°19'0 0.0
2018-Jul-09 17:48N 38°52' E 001°19'0 0.0
2018-Jul-09 17:30N 38°52' E 001°19'0 0.0
2018-Jul-09 16:54N 38°52' E 001°19'0 0.0
2018-Jul-09 16:12N 38°52' E 001°19'0 0.0
2018-Jul-09 15:54N 38°52' E 001°19'0 0.0
2018-Jul-09 15:12N 38°52' E 001°19'0 0.0
2018-Jul-09 14:12N 38°52' E 001°19'0 0.0
2018-Jul-09 13:42N 38°52' E 001°19'0 0.0
2018-Jul-09 13:30N 38°52' E 001°19'0 0.0
2018-Jul-09 13:00N 38°52' E 001°19'0 0.0
2018-Jul-09 12:12N 38°52' E 001°19'0 0.0
2018-Jul-09 12:00N 38°52' E 001°19'0 0.0
2018-Jul-09 11:24N 38°52' E 001°19'0 0.0
2018-Jul-09 11:00N 38°52' E 001°19'0 0.0
2018-Jul-09 10:24N 38°52' E 001°19'0 0.0
2018-Jul-09 10:00N 38°52' E 001°19'  

Dump ship's entire track history